Orem, UT (84057)

12:28 PM MDT on March 26, 2017 (GMT -0600)
Suncrest | | Change Station

Elev 4757 ft 40.30 °N, 111.71 °W | Updated 24 seconds ago

Partly Cloudy
Partly Cloudy
51.3 °F
Feels Like 51.3 °F
N
2.5
Wind Variable Wind from SW
Gusts 5.6 mph

Today
High -- | Low -- °F
--% Chance of Precip.
Yesterday
High -- | Low -- °F
Precip. -- in
Pressure 30.08 in
Visibility 10.0 miles
Clouds Few 4000 ft
Dew Point 44 °F
Humidity 76%
Rainfall 0.00 in
Snow Depth Not available.
7:19 AM 7:45 PM
Waning Crescent, 2% visible
METAR KPVU 261758Z VRB05KT 10SM FEW040 08/03 A3008
Pressure 30.08 in
Visibility 10.0 miles
Clouds Few 4000 ft
Dew Point 44 °F
Humidity 76%
Rainfall 0.00 in
Snow Depth Not available.
7:19 AM 7:45 PM
Waning Crescent, 2% visible
METAR KPVU 261758Z VRB05KT 10SM FEW040 08/03 A3008

Get Severe Weather Alerts

Thanks for signing up!

Be on the lookout for a verification email in your inbox.

You'll start receiving the daily forecast at 8 AM.

×

10-Day Weather Forecast

Almanac

Astronomy

Mar. 26, 2017 Rise Set
Actual Time
Civil Twilight
Nautical Twilight
Astronomical Twilight
Moon
Length of Visible Light
Length of Day
Tomorrow will be .
, % of the Moon is Illuminated

Today's Extremes

State Highs State Lows

Community

WunderPhotos

Upload Photos

1,962,540 photos uploaded!

WunderBlog® & News

Nearby

Air Quality

  Air Quality AQ Index Pollutant
Not available.

Snow Depth

Station Depth Elevation

Earthquake Activity

City Distance Mag. Time & Date
Minimum magnitude displayed is 2.5.

Earthquake Activity

City Distance Mag. Time & Date
Minimum magnitude displayed is 2.5.

Coastal Water Temperatures

Place Temperature

Stations

Nearby Weather Stations

Station Location Temp. Windchill Dew Point Humidity Wind Precip. Elev Updated Type
                   

Watches & Warnings

There are currently no watches in effect.